sensor_id;sensor_type;location;lat;lon;timestamp;P1;durP1;ratioP1;P2;durP2;ratioP2
34960;SDS011;30789;52.030;7.110;2022-11-18T00:00:03;3.05;;;2.40;;
34960;SDS011;30789;52.030;7.110;2022-11-18T00:02:30;6.65;;;2.78;;
34960;SDS011;30789;52.030;7.110;2022-11-18T00:04:56;4.03;;;2.50;;
34960;SDS011;30789;52.030;7.110;2022-11-18T00:07:23;6.65;;;2.72;;
34960;SDS011;30789;52.030;7.110;2022-11-18T00:09:49;5.05;;;2.15;;
34960;SDS011;30789;52.030;7.110;2022-11-18T00:12:16;4.47;;;2.90;;
34960;SDS011;30789;52.030;7.110;2022-11-18T00:15:01;9.52;;;2.85;;
34960;SDS011;30789;52.030;7.110;2022-11-18T00:17:28;5.38;;;2.13;;
34960;SDS011;30789;52.030;7.110;2022-11-18T00:19:57;5.68;;;2.97;;
34960;SDS011;30789;52.030;7.110;2022-11-18T00:22:23;5.88;;;2.63;;
34960;SDS011;30789;52.030;7.110;2022-11-18T00:24:50;4.00;;;2.80;;
34960;SDS011;30789;52.030;7.110;2022-11-18T00:27:16;6.18;;;2.70;;
34960;SDS011;30789;52.030;7.110;2022-11-18T00:29:42;3.20;;;2.20;;
34960;SDS011;30789;52.030;7.110;2022-11-18T00:32:10;4.40;;;2.45;;
34960;SDS011;30789;52.030;7.110;2022-11-18T00:34:37;4.72;;;2.72;;
34960;SDS011;30789;52.030;7.110;2022-11-18T00:37:03;5.82;;;2.70;;
34960;SDS011;30789;52.030;7.110;2022-11-18T00:39:30;5.97;;;2.80;;
34960;SDS011;30789;52.030;7.110;2022-11-18T00:41:56;6.65;;;2.70;;
34960;SDS011;30789;52.030;7.110;2022-11-18T00:44:40;4.65;;;2.42;;
34960;SDS011;30789;52.030;7.110;2022-11-18T00:47:07;3.70;;;2.72;;
34960;SDS011;30789;52.030;7.110;2022-11-18T00:49:34;5.28;;;2.75;;
34960;SDS011;30789;52.030;7.110;2022-11-18T00:52:01;4.65;;;2.63;;
34960;SDS011;30789;52.030;7.110;2022-11-18T00:54:28;7.30;;;2.28;;
34960;SDS011;30789;52.030;7.110;2022-11-18T00:56:54;3.35;;;2.58;;
34960;SDS011;30789;52.030;7.110;2022-11-18T00:59:20;3.72;;;2.67;;
34960;SDS011;30789;52.030;7.110;2022-11-18T01:01:47;5.45;;;2.67;;
34960;SDS011;30789;52.030;7.110;2022-11-18T01:04:13;9.88;;;2.72;;
34960;SDS011;30789;52.030;7.110;2022-11-18T01:06:41;6.72;;;2.70;;
34960;SDS011;30789;52.030;7.110;2022-11-18T01:09:08;4.43;;;2.47;;
34960;SDS011;30789;52.030;7.110;2022-11-18T01:11:34;5.72;;;2.90;;
34960;SDS011;30789;52.030;7.110;2022-11-18T01:14:18;3.78;;;2.30;;
34960;SDS011;30789;52.030;7.110;2022-11-18T01:16:45;5.60;;;2.58;;
34960;SDS011;30789;52.030;7.110;2022-11-18T01:19:15;6.55;;;3.33;;
34960;SDS011;30789;52.030;7.110;2022-11-18T01:21:43;6.85;;;2.78;;
34960;SDS011;30789;52.030;7.110;2022-11-18T01:24:09;5.60;;;2.63;;
34960;SDS011;30789;52.030;7.110;2022-11-18T01:26:35;8.52;;;2.92;;
34960;SDS011;30789;52.030;7.110;2022-11-18T01:29:02;5.70;;;2.95;;
34960;SDS011;30789;52.030;7.110;2022-11-18T01:31:28;5.10;;;2.80;;
34960;SDS011;30789;52.030;7.110;2022-11-18T01:33:55;4.97;;;2.55;;
34960;SDS011;30789;52.030;7.110;2022-11-18T01:36:22;5.13;;;2.80;;
34960;SDS011;30789;52.030;7.110;2022-11-18T01:38:51;4.55;;;2.85;;
34960;SDS011;30789;52.030;7.110;2022-11-18T01:41:19;7.63;;;2.70;;
34960;SDS011;30789;52.030;7.110;2022-11-18T01:43:48;4.63;;;2.60;;
34960;SDS011;30789;52.030;7.110;2022-11-18T01:46:17;4.55;;;2.65;;
34960;SDS011;30789;52.030;7.110;2022-11-18T01:48:44;6.55;;;2.92;;
34960;SDS011;30789;52.030;7.110;2022-11-18T01:51:14;6.40;;;2.85;;
34960;SDS011;30789;52.030;7.110;2022-11-18T01:53:44;4.97;;;2.70;;
34960;SDS011;30789;52.030;7.110;2022-11-18T01:56:15;4.07;;;2.42;;
34960;SDS011;30789;52.030;7.110;2022-11-18T01:58:44;4.97;;;2.80;;
34960;SDS011;30789;52.030;7.110;2022-11-18T02:01:14;5.93;;;3.00;;
34960;SDS011;30789;52.030;7.110;2022-11-18T02:03:41;4.88;;;2.65;;
34960;SDS011;30789;52.030;7.110;2022-11-18T02:06:10;5.78;;;2.63;;
34960;SDS011;30789;52.030;7.110;2022-11-18T02:08:36;4.88;;;2.78;;
34960;SDS011;30789;52.030;7.110;2022-11-18T02:11:04;6.22;;;2.50;;
34960;SDS011;30789;52.030;7.110;2022-11-18T02:13:35;3.55;;;2.38;;
34960;SDS011;30789;52.030;7.110;2022-11-18T02:16:04;5.45;;;2.88;;
34960;SDS011;30789;52.030;7.110;2022-11-18T02:18:35;5.82;;;3.17;;
34960;SDS011;30789;52.030;7.110;2022-11-18T02:21:12;5.80;;;3.05;;
34960;SDS011;30789;52.030;7.110;2022-11-18T02:23:58;8.85;;;3.75;;
34960;SDS011;30789;52.030;7.110;2022-11-18T02:29:38;4.03;;;2.83;;
34960;SDS011;30789;52.030;7.110;2022-11-18T02:32:10;5.97;;;3.15;;
34960;SDS011;30789;52.030;7.110;2022-11-18T02:37:14;6.53;;;2.75;;
34960;SDS011;30789;52.030;7.110;2022-11-18T02:39:50;4.38;;;2.97;;
34960;SDS011;30789;52.030;7.110;2022-11-18T02:42:20;5.53;;;2.70;;
34960;SDS011;30789;52.030;7.110;2022-11-18T02:44:51;3.88;;;2.40;;
34960;SDS011;30789;52.030;7.110;2022-11-18T02:47:20;2.72;;;2.10;;
34960;SDS011;30789;52.030;7.110;2022-11-18T02:49:50;3.75;;;2.20;;
34960;SDS011;30789;52.030;7.110;2022-11-18T02:52:20;9.48;;;2.90;;
34960;SDS011;30789;52.030;7.110;2022-11-18T02:54:49;4.20;;;2.30;;
34960;SDS011;30789;52.030;7.110;2022-11-18T02:57:17;7.15;;;2.58;;
34960;SDS011;30789;52.030;7.110;2022-11-18T02:59:46;3.63;;;2.30;;
34960;SDS011;30789;52.030;7.110;2022-11-18T03:02:15;5.30;;;2.55;;
34960;SDS011;30789;52.030;7.110;2022-11-18T03:04:43;3.20;;;2.25;;
34960;SDS011;30789;52.030;7.110;2022-11-18T03:07:12;4.45;;;2.28;;
34960;SDS011;30789;52.030;7.110;2022-11-18T03:09:45;6.30;;;2.90;;
34960;SDS011;30789;52.030;7.110;2022-11-18T03:12:15;8.68;;;2.40;;
34960;SDS011;30789;52.030;7.110;2022-11-18T03:14:50;6.47;;;2.85;;
34960;SDS011;30789;52.030;7.110;2022-11-18T03:17:29;6.13;;;2.47;;
34960;SDS011;30789;52.030;7.110;2022-11-18T03:20:06;4.30;;;2.67;;
34960;SDS011;30789;52.030;7.110;2022-11-18T03:22:42;5.80;;;2.13;;
34960;SDS011;30789;52.030;7.110;2022-11-18T03:25:13;6.00;;;2.97;;
34960;SDS011;30789;52.030;7.110;2022-11-18T03:27:45;4.10;;;2.70;;
34960;SDS011;30789;52.030;7.110;2022-11-18T03:30:19;6.68;;;2.75;;
34960;SDS011;30789;52.030;7.110;2022-11-18T03:32:50;3.88;;;2.58;;
34960;SDS011;30789;52.030;7.110;2022-11-18T03:35:22;3.83;;;2.38;;
34960;SDS011;30789;52.030;7.110;2022-11-18T03:37:51;3.72;;;2.28;;
34960;SDS011;30789;52.030;7.110;2022-11-18T03:40:24;5.70;;;2.83;;
34960;SDS011;30789;52.030;7.110;2022-11-18T03:42:53;5.78;;;2.88;;
34960;SDS011;30789;52.030;7.110;2022-11-18T03:45:25;6.85;;;2.35;;
34960;SDS011;30789;52.030;7.110;2022-11-18T03:47:59;4.75;;;2.42;;
34960;SDS011;30789;52.030;7.110;2022-11-18T03:50:30;6.40;;;2.67;;
34960;SDS011;30789;52.030;7.110;2022-11-18T03:52:59;5.05;;;2.55;;
34960;SDS011;30789;52.030;7.110;2022-11-18T03:55:28;6.40;;;2.95;;
34960;SDS011;30789;52.030;7.110;2022-11-18T03:58:02;3.40;;;2.42;;
34960;SDS011;30789;52.030;7.110;2022-11-18T04:00:33;5.82;;;2.75;;
34960;SDS011;30789;52.030;7.110;2022-11-18T04:03:05;3.70;;;2.63;;
34960;SDS011;30789;52.030;7.110;2022-11-18T04:05:32;5.72;;;2.47;;
34960;SDS011;30789;52.030;7.110;2022-11-18T04:08:03;4.53;;;2.80;;
34960;SDS011;30789;52.030;7.110;2022-11-18T04:10:33;4.55;;;2.40;;
34960;SDS011;30789;52.030;7.110;2022-11-18T04:13:05;4.63;;;2.93;;
34960;SDS011;30789;52.030;7.110;2022-11-18T04:15:35;4.90;;;2.33;;
34960;SDS011;30789;52.030;7.110;2022-11-18T04:18:05;6.03;;;3.03;;
34960;SDS011;30789;52.030;7.110;2022-11-18T04:20:32;3.35;;;2.40;;
34960;SDS011;30789;52.030;7.110;2022-11-18T04:22:58;4.93;;;2.38;;
34960;SDS011;30789;52.030;7.110;2022-11-18T04:25:25;4.63;;;2.22;;
34960;SDS011;30789;52.030;7.110;2022-11-18T04:27:51;4.50;;;2.75;;
34960;SDS011;30789;52.030;7.110;2022-11-18T04:32:55;4.47;;;2.67;;
34960;SDS011;30789;52.030;7.110;2022-11-18T04:35:23;3.67;;;3.30;;
34960;SDS011;30789;52.030;7.110;2022-11-18T04:37:50;5.75;;;2.78;;
34960;SDS011;30789;52.030;7.110;2022-11-18T04:40:16;5.85;;;2.50;;
34960;SDS011;30789;52.030;7.110;2022-11-18T04:42:43;3.92;;;2.75;;
34960;SDS011;30789;52.030;7.110;2022-11-18T04:45:09;3.75;;;2.85;;
34960;SDS011;30789;52.030;7.110;2022-11-18T04:47:36;3.38;;;2.72;;
34960;SDS011;30789;52.030;7.110;2022-11-18T04:50:03;5.78;;;3.22;;
34960;SDS011;30789;52.030;7.110;2022-11-18T04:52:31;7.38;;;3.03;;
34960;SDS011;30789;52.030;7.110;2022-11-18T04:54:58;6.43;;;3.35;;
34960;SDS011;30789;52.030;7.110;2022-11-18T04:57:24;5.22;;;3.10;;
34960;SDS011;30789;52.030;7.110;2022-11-18T04:59:51;6.13;;;3.30;;
34960;SDS011;30789;52.030;7.110;2022-11-18T05:02:17;6.60;;;3.28;;
34960;SDS011;30789;52.030;7.110;2022-11-18T05:04:44;5.93;;;3.28;;
34960;SDS011;30789;52.030;7.110;2022-11-18T05:07:12;5.53;;;3.30;;
34960;SDS011;30789;52.030;7.110;2022-11-18T05:09:41;7.25;;;2.95;;
34960;SDS011;30789;52.030;7.110;2022-11-18T05:12:09;7.13;;;3.35;;
34960;SDS011;30789;52.030;7.110;2022-11-18T05:14:54;5.95;;;3.38;;
34960;SDS011;30789;52.030;7.110;2022-11-18T05:17:20;4.40;;;3.00;;
34960;SDS011;30789;52.030;7.110;2022-11-18T05:19:47;4.20;;;2.95;;
34960;SDS011;30789;52.030;7.110;2022-11-18T05:22:14;5.80;;;3.40;;
34960;SDS011;30789;52.030;7.110;2022-11-18T05:24:42;6.78;;;3.20;;
34960;SDS011;30789;52.030;7.110;2022-11-18T05:27:08;3.17;;;2.65;;
34960;SDS011;30789;52.030;7.110;2022-11-18T05:29:35;4.45;;;3.17;;
34960;SDS011;30789;52.030;7.110;2022-11-18T05:32:01;5.93;;;3.40;;
34960;SDS011;30789;52.030;7.110;2022-11-18T05:34:27;7.60;;;3.33;;
34960;SDS011;30789;52.030;7.110;2022-11-18T05:36:54;4.18;;;2.90;;
34960;SDS011;30789;52.030;7.110;2022-11-18T05:39:20;2.90;;;2.60;;
34960;SDS011;30789;52.030;7.110;2022-11-18T05:41:48;4.60;;;3.70;;
34960;SDS011;30789;52.030;7.110;2022-11-18T05:44:32;6.05;;;4.18;;
34960;SDS011;30789;52.030;7.110;2022-11-18T05:46:59;4.60;;;3.70;;
34960;SDS011;30789;52.030;7.110;2022-11-18T05:49:25;4.88;;;3.38;;
34960;SDS011;30789;52.030;7.110;2022-11-18T05:51:51;5.80;;;4.10;;
34960;SDS011;30789;52.030;7.110;2022-11-18T05:54:18;5.13;;;3.10;;
34960;SDS011;30789;52.030;7.110;2022-11-18T05:56:46;7.47;;;3.30;;
34960;SDS011;30789;52.030;7.110;2022-11-18T05:59:14;3.72;;;3.08;;
34960;SDS011;30789;52.030;7.110;2022-11-18T06:01:42;5.63;;;3.45;;
34960;SDS011;30789;52.030;7.110;2022-11-18T06:04:13;4.60;;;3.35;;
34960;SDS011;30789;52.030;7.110;2022-11-18T06:06:43;6.13;;;3.53;;
34960;SDS011;30789;52.030;7.110;2022-11-18T06:09:14;6.20;;;4.30;;
34960;SDS011;30789;52.030;7.110;2022-11-18T06:11:44;7.63;;;3.80;;
34960;SDS011;30789;52.030;7.110;2022-11-18T06:14:18;7.25;;;3.85;;
34960;SDS011;30789;52.030;7.110;2022-11-18T06:16:48;6.05;;;3.75;;
34960;SDS011;30789;52.030;7.110;2022-11-18T06:19:18;10.77;;;4.85;;
34960;SDS011;30789;52.030;7.110;2022-11-18T06:21:45;6.78;;;4.38;;
34960;SDS011;30789;52.030;7.110;2022-11-18T06:24:12;6.07;;;3.85;;
34960;SDS011;30789;52.030;7.110;2022-11-18T06:26:39;5.15;;;3.72;;
34960;SDS011;30789;52.030;7.110;2022-11-18T06:29:07;5.53;;;3.78;;
34960;SDS011;30789;52.030;7.110;2022-11-18T06:31:38;4.68;;;3.55;;
34960;SDS011;30789;52.030;7.110;2022-11-18T06:34:04;6.13;;;4.07;;
34960;SDS011;30789;52.030;7.110;2022-11-18T06:36:31;4.85;;;3.88;;
34960;SDS011;30789;52.030;7.110;2022-11-18T06:39:01;4.68;;;3.75;;
34960;SDS011;30789;52.030;7.110;2022-11-18T06:41:28;7.65;;;3.58;;
34960;SDS011;30789;52.030;7.110;2022-11-18T06:43:54;6.53;;;3.40;;
34960;SDS011;30789;52.030;7.110;2022-11-18T06:46:20;4.72;;;3.45;;
34960;SDS011;30789;52.030;7.110;2022-11-18T06:49:05;4.47;;;3.20;;
34960;SDS011;30789;52.030;7.110;2022-11-18T06:51:32;4.97;;;3.25;;
34960;SDS011;30789;52.030;7.110;2022-11-18T06:53:58;5.03;;;3.25;;
34960;SDS011;30789;52.030;7.110;2022-11-18T06:56:24;4.63;;;3.58;;
34960;SDS011;30789;52.030;7.110;2022-11-18T06:58:51;4.50;;;3.33;;
34960;SDS011;30789;52.030;7.110;2022-11-18T07:01:19;3.55;;;3.20;;
34960;SDS011;30789;52.030;7.110;2022-11-18T07:03:47;4.78;;;3.25;;
34960;SDS011;30789;52.030;7.110;2022-11-18T07:06:16;5.75;;;3.78;;
34960;SDS011;30789;52.030;7.110;2022-11-18T07:08:44;4.15;;;3.22;;
34960;SDS011;30789;52.030;7.110;2022-11-18T07:11:11;4.78;;;3.47;;
34960;SDS011;30789;52.030;7.110;2022-11-18T07:13:39;4.57;;;3.78;;
34960;SDS011;30789;52.030;7.110;2022-11-18T07:16:06;5.05;;;3.83;;
34960;SDS011;30789;52.030;7.110;2022-11-18T07:18:34;7.22;;;5.13;;
34960;SDS011;30789;52.030;7.110;2022-11-18T07:21:03;6.47;;;4.80;;
34960;SDS011;30789;52.030;7.110;2022-11-18T07:23:32;5.97;;;3.85;;
34960;SDS011;30789;52.030;7.110;2022-11-18T07:25:59;5.07;;;3.88;;
34960;SDS011;30789;52.030;7.110;2022-11-18T07:28:27;7.90;;;4.55;;
34960;SDS011;30789;52.030;7.110;2022-11-18T07:30:58;8.38;;;4.70;;
34960;SDS011;30789;52.030;7.110;2022-11-18T07:33:25;7.47;;;4.18;;
34960;SDS011;30789;52.030;7.110;2022-11-18T07:35:52;7.05;;;4.82;;
34960;SDS011;30789;52.030;7.110;2022-11-18T07:38:18;8.98;;;5.55;;
34960;SDS011;30789;52.030;7.110;2022-11-18T07:40:46;5.95;;;4.72;;
34960;SDS011;30789;52.030;7.110;2022-11-18T07:43:12;6.22;;;4.65;;
34960;SDS011;30789;52.030;7.110;2022-11-18T07:45:39;6.57;;;4.97;;
34960;SDS011;30789;52.030;7.110;2022-11-18T07:48:05;7.97;;;5.05;;
34960;SDS011;30789;52.030;7.110;2022-11-18T07:50:32;5.95;;;4.32;;
34960;SDS011;30789;52.030;7.110;2022-11-18T07:52:58;7.22;;;4.72;;
34960;SDS011;30789;52.030;7.110;2022-11-18T07:55:24;7.90;;;5.10;;
34960;SDS011;30789;52.030;7.110;2022-11-18T07:57:52;7.43;;;4.43;;
34960;SDS011;30789;52.030;7.110;2022-11-18T08:00:21;8.18;;;5.03;;
34960;SDS011;30789;52.030;7.110;2022-11-18T08:02:48;8.55;;;5.20;;
34960;SDS011;30789;52.030;7.110;2022-11-18T08:05:15;6.88;;;4.57;;
34960;SDS011;30789;52.030;7.110;2022-11-18T08:07:41;6.57;;;5.70;;
34960;SDS011;30789;52.030;7.110;2022-11-18T08:10:08;8.15;;;6.22;;
34960;SDS011;30789;52.030;7.110;2022-11-18T08:12:35;8.38;;;6.05;;
34960;SDS011;30789;52.030;7.110;2022-11-18T08:15:03;7.95;;;5.85;;
34960;SDS011;30789;52.030;7.110;2022-11-18T08:17:29;7.05;;;5.68;;
34960;SDS011;30789;52.030;7.110;2022-11-18T08:19:57;10.77;;;6.22;;
34960;SDS011;30789;52.030;7.110;2022-11-18T08:22:24;7.20;;;5.75;;
34960;SDS011;30789;52.030;7.110;2022-11-18T08:24:50;10.18;;;6.13;;
34960;SDS011;30789;52.030;7.110;2022-11-18T08:27:17;8.38;;;6.88;;
34960;SDS011;30789;52.030;7.110;2022-11-18T08:29:43;7.57;;;6.20;;
34960;SDS011;30789;52.030;7.110;2022-11-18T08:32:11;9.27;;;7.00;;
34960;SDS011;30789;52.030;7.110;2022-11-18T08:34:37;8.57;;;6.32;;
34960;SDS011;30789;52.030;7.110;2022-11-18T08:37:04;7.40;;;6.15;;
34960;SDS011;30789;52.030;7.110;2022-11-18T08:39:30;8.38;;;6.53;;
34960;SDS011;30789;52.030;7.110;2022-11-18T08:41:56;10.27;;;6.90;;
34960;SDS011;30789;52.030;7.110;2022-11-18T08:44:23;8.75;;;6.75;;
34960;SDS011;30789;52.030;7.110;2022-11-18T08:46:49;10.90;;;7.45;;
34960;SDS011;30789;52.030;7.110;2022-11-18T08:49:17;7.97;;;6.38;;
34960;SDS011;30789;52.030;7.110;2022-11-18T08:51:44;9.85;;;6.93;;
34960;SDS011;30789;52.030;7.110;2022-11-18T08:54:10;7.95;;;6.85;;
34960;SDS011;30789;52.030;7.110;2022-11-18T08:56:36;10.43;;;7.10;;
34960;SDS011;30789;52.030;7.110;2022-11-18T08:59:04;10.20;;;6.88;;
34960;SDS011;30789;52.030;7.110;2022-11-18T09:01:30;8.23;;;7.43;;
34960;SDS011;30789;52.030;7.110;2022-11-18T09:03:57;10.05;;;7.13;;
34960;SDS011;30789;52.030;7.110;2022-11-18T09:06:25;12.23;;;6.88;;
34960;SDS011;30789;52.030;7.110;2022-11-18T09:08:51;10.32;;;7.22;;
34960;SDS011;30789;52.030;7.110;2022-11-18T09:11:19;7.00;;;6.13;;
34960;SDS011;30789;52.030;7.110;2022-11-18T09:13:47;8.20;;;6.75;;
34960;SDS011;30789;52.030;7.110;2022-11-18T09:16:17;7.97;;;6.72;;
34960;SDS011;30789;52.030;7.110;2022-11-18T09:18:44;9.00;;;6.97;;
34960;SDS011;30789;52.030;7.110;2022-11-18T09:21:10;9.50;;;7.20;;
34960;SDS011;30789;52.030;7.110;2022-11-18T09:23:38;33.42;;;22.02;;
34960;SDS011;30789;52.030;7.110;2022-11-18T09:26:06;28.15;;;21.08;;
34960;SDS011;30789;52.030;7.110;2022-11-18T09:28:33;14.98;;;10.23;;
34960;SDS011;30789;52.030;7.110;2022-11-18T09:31:01;12.75;;;10.23;;
34960;SDS011;30789;52.030;7.110;2022-11-18T09:33:29;12.18;;;9.50;;
34960;SDS011;30789;52.030;7.110;2022-11-18T09:35:55;18.23;;;13.82;;
34960;SDS011;30789;52.030;7.110;2022-11-18T09:38:22;14.13;;;11.88;;
34960;SDS011;30789;52.030;7.110;2022-11-18T09:40:52;13.90;;;9.90;;
34960;SDS011;30789;52.030;7.110;2022-11-18T09:43:34;11.50;;;9.15;;
34960;SDS011;30789;52.030;7.110;2022-11-18T09:46:20;10.65;;;8.98;;
34960;SDS011;30789;52.030;7.110;2022-11-18T09:48:51;11.82;;;9.57;;
34960;SDS011;30789;52.030;7.110;2022-11-18T09:51:49;12.05;;;9.57;;
34960;SDS011;30789;52.030;7.110;2022-11-18T09:54:17;13.48;;;10.18;;
34960;SDS011;30789;52.030;7.110;2022-11-18T09:56:48;16.38;;;10.95;;
34960;SDS011;30789;52.030;7.110;2022-11-18T09:59:16;18.38;;;10.27;;
34960;SDS011;30789;52.030;7.110;2022-11-18T10:01:45;14.05;;;9.88;;
34960;SDS011;30789;52.030;7.110;2022-11-18T10:04:14;14.52;;;10.10;;
34960;SDS011;30789;52.030;7.110;2022-11-18T10:06:41;18.85;;;11.75;;
34960;SDS011;30789;52.030;7.110;2022-11-18T10:09:12;13.95;;;11.00;;
34960;SDS011;30789;52.030;7.110;2022-11-18T10:11:52;13.55;;;10.45;;
34960;SDS011;30789;52.030;7.110;2022-11-18T10:14:44;12.55;;;9.77;;
34960;SDS011;30789;52.030;7.110;2022-11-18T10:17:23;17.85;;;12.25;;
34960;SDS011;30789;52.030;7.110;2022-11-18T10:20:02;13.73;;;10.43;;
34960;SDS011;30789;52.030;7.110;2022-11-18T10:22:45;15.23;;;11.57;;
34960;SDS011;30789;52.030;7.110;2022-11-18T10:25:15;14.88;;;10.85;;
34960;SDS011;30789;52.030;7.110;2022-11-18T10:27:45;15.02;;;10.18;;
34960;SDS011;30789;52.030;7.110;2022-11-18T10:30:14;12.75;;;9.40;;
34960;SDS011;30789;52.030;7.110;2022-11-18T10:32:54;15.10;;;9.05;;
34960;SDS011;30789;52.030;7.110;2022-11-18T10:35:23;13.45;;;8.88;;
34960;SDS011;30789;52.030;7.110;2022-11-18T10:37:58;14.60;;;9.75;;
34960;SDS011;30789;52.030;7.110;2022-11-18T10:40:27;15.20;;;9.50;;
34960;SDS011;30789;52.030;7.110;2022-11-18T10:42:56;13.20;;;9.50;;
34960;SDS011;30789;52.030;7.110;2022-11-18T10:45:24;15.15;;;9.55;;
34960;SDS011;30789;52.030;7.110;2022-11-18T10:48:00;17.23;;;9.85;;
34960;SDS011;30789;52.030;7.110;2022-11-18T10:50:32;12.32;;;9.13;;
34960;SDS011;30789;52.030;7.110;2022-11-18T10:53:00;17.45;;;8.85;;
34960;SDS011;30789;52.030;7.110;2022-11-18T10:55:28;11.23;;;8.98;;
34960;SDS011;30789;52.030;7.110;2022-11-18T10:57:57;13.00;;;9.00;;
34960;SDS011;30789;52.030;7.110;2022-11-18T11:00:34;11.63;;;8.57;;
34960;SDS011;30789;52.030;7.110;2022-11-18T11:09:00;11.40;;;9.10;;
34960;SDS011;30789;52.030;7.110;2022-11-18T11:11:30;14.15;;;9.82;;
34960;SDS011;30789;52.030;7.110;2022-11-18T11:14:14;11.27;;;8.30;;
34960;SDS011;30789;52.030;7.110;2022-11-18T11:16:47;12.85;;;8.95;;
34960;SDS011;30789;52.030;7.110;2022-11-18T11:19:22;10.50;;;8.55;;
34960;SDS011;30789;52.030;7.110;2022-11-18T11:21:52;12.30;;;8.75;;
34960;SDS011;30789;52.030;7.110;2022-11-18T11:24:19;10.45;;;8.15;;
34960;SDS011;30789;52.030;7.110;2022-11-18T11:26:51;12.95;;;9.13;;
34960;SDS011;30789;52.030;7.110;2022-11-18T11:29:31;12.05;;;8.30;;
34960;SDS011;30789;52.030;7.110;2022-11-18T11:32:04;13.32;;;9.50;;
34960;SDS011;30789;52.030;7.110;2022-11-18T11:34:41;13.23;;;8.10;;
34960;SDS011;30789;52.030;7.110;2022-11-18T11:37:15;18.52;;;12.38;;
34960;SDS011;30789;52.030;7.110;2022-11-18T11:39:52;11.25;;;8.55;;
34960;SDS011;30789;52.030;7.110;2022-11-18T11:42:31;15.00;;;7.97;;
34960;SDS011;30789;52.030;7.110;2022-11-18T11:45:08;12.75;;;10.73;;
34960;SDS011;30789;52.030;7.110;2022-11-18T11:47:46;13.10;;;7.72;;
34960;SDS011;30789;52.030;7.110;2022-11-18T11:50:27;10.68;;;8.32;;
34960;SDS011;30789;52.030;7.110;2022-11-18T11:53:19;12.23;;;8.35;;
34960;SDS011;30789;52.030;7.110;2022-11-18T11:55:58;10.95;;;7.97;;
34960;SDS011;30789;52.030;7.110;2022-11-18T11:58:36;12.95;;;9.45;;
34960;SDS011;30789;52.030;7.110;2022-11-18T12:01:18;13.32;;;10.63;;
34960;SDS011;30789;52.030;7.110;2022-11-18T12:03:48;16.45;;;11.00;;
34960;SDS011;30789;52.030;7.110;2022-11-18T12:06:18;17.25;;;11.88;;
34960;SDS011;30789;52.030;7.110;2022-11-18T12:08:49;16.88;;;11.35;;
34960;SDS011;30789;52.030;7.110;2022-11-18T12:11:26;18.77;;;11.80;;
34960;SDS011;30789;52.030;7.110;2022-11-18T12:14:00;20.08;;;13.20;;
34960;SDS011;30789;52.030;7.110;2022-11-18T12:19:02;17.25;;;12.38;;
34960;SDS011;30789;52.030;7.110;2022-11-18T12:21:55;19.13;;;12.90;;
34960;SDS011;30789;52.030;7.110;2022-11-18T12:24:34;18.77;;;12.85;;
34960;SDS011;30789;52.030;7.110;2022-11-18T12:27:03;17.50;;;12.48;;
34960;SDS011;30789;52.030;7.110;2022-11-18T12:29:34;22.63;;;13.82;;
34960;SDS011;30789;52.030;7.110;2022-11-18T12:32:15;21.55;;;12.82;;
34960;SDS011;30789;52.030;7.110;2022-11-18T12:35:01;20.77;;;12.93;;
34960;SDS011;30789;52.030;7.110;2022-11-18T12:37:38;17.98;;;13.73;;
34960;SDS011;30789;52.030;7.110;2022-11-18T12:40:10;20.88;;;13.85;;
34960;SDS011;30789;52.030;7.110;2022-11-18T12:42:57;21.23;;;15.00;;
34960;SDS011;30789;52.030;7.110;2022-11-18T12:45:52;24.23;;;16.00;;
34960;SDS011;30789;52.030;7.110;2022-11-18T12:48:28;23.77;;;16.77;;
34960;SDS011;30789;52.030;7.110;2022-11-18T12:54:19;17.23;;;13.25;;
34960;SDS011;30789;52.030;7.110;2022-11-18T12:56:50;15.32;;;11.25;;
34960;SDS011;30789;52.030;7.110;2022-11-18T12:59:24;12.85;;;10.85;;
34960;SDS011;30789;52.030;7.110;2022-11-18T13:02:00;15.23;;;11.70;;
34960;SDS011;30789;52.030;7.110;2022-11-18T13:04:28;16.55;;;10.52;;
34960;SDS011;30789;52.030;7.110;2022-11-18T13:06:55;15.25;;;11.85;;
34960;SDS011;30789;52.030;7.110;2022-11-18T13:09:24;17.45;;;12.00;;
34960;SDS011;30789;52.030;7.110;2022-11-18T13:11:55;16.13;;;11.93;;
34960;SDS011;30789;52.030;7.110;2022-11-18T13:14:26;20.77;;;12.15;;
34960;SDS011;30789;52.030;7.110;2022-11-18T13:17:22;18.75;;;12.88;;
34960;SDS011;30789;52.030;7.110;2022-11-18T13:20:18;18.48;;;12.13;;
34960;SDS011;30789;52.030;7.110;2022-11-18T13:22:51;22.30;;;12.70;;
34960;SDS011;30789;52.030;7.110;2022-11-18T13:25:37;17.50;;;11.52;;
34960;SDS011;30789;52.030;7.110;2022-11-18T13:28:08;17.63;;;11.77;;
34960;SDS011;30789;52.030;7.110;2022-11-18T13:30:50;19.60;;;11.68;;
34960;SDS011;30789;52.030;7.110;2022-11-18T13:33:22;20.02;;;11.95;;
34960;SDS011;30789;52.030;7.110;2022-11-18T13:35:50;24.33;;;13.75;;
34960;SDS011;30789;52.030;7.110;2022-11-18T13:38:18;25.25;;;12.93;;
34960;SDS011;30789;52.030;7.110;2022-11-18T13:40:48;25.80;;;14.00;;
34960;SDS011;30789;52.030;7.110;2022-11-18T13:43:29;23.00;;;12.93;;
34960;SDS011;30789;52.030;7.110;2022-11-18T13:45:56;21.63;;;13.02;;
34960;SDS011;30789;52.030;7.110;2022-11-18T13:48:25;18.33;;;11.40;;
34960;SDS011;30789;52.030;7.110;2022-11-18T13:50:54;17.58;;;11.30;;
34960;SDS011;30789;52.030;7.110;2022-11-18T13:53:25;18.52;;;11.65;;
34960;SDS011;30789;52.030;7.110;2022-11-18T13:55:56;19.27;;;11.32;;
34960;SDS011;30789;52.030;7.110;2022-11-18T13:58:31;19.43;;;10.60;;
34960;SDS011;30789;52.030;7.110;2022-11-18T14:01:02;13.77;;;10.02;;
34960;SDS011;30789;52.030;7.110;2022-11-18T14:03:30;14.93;;;9.82;;
34960;SDS011;30789;52.030;7.110;2022-11-18T14:06:01;15.05;;;9.35;;
34960;SDS011;30789;52.030;7.110;2022-11-18T14:08:29;16.23;;;11.02;;
34960;SDS011;30789;52.030;7.110;2022-11-18T14:10:57;17.42;;;10.48;;
34960;SDS011;30789;52.030;7.110;2022-11-18T14:13:24;15.65;;;9.65;;
34960;SDS011;30789;52.030;7.110;2022-11-18T14:15:53;18.40;;;10.65;;
34960;SDS011;30789;52.030;7.110;2022-11-18T14:18:24;15.20;;;10.15;;
34960;SDS011;30789;52.030;7.110;2022-11-18T14:20:55;15.45;;;9.13;;
34960;SDS011;30789;52.030;7.110;2022-11-18T14:23:26;16.27;;;9.27;;
34960;SDS011;30789;52.030;7.110;2022-11-18T14:25:55;17.48;;;10.10;;
34960;SDS011;30789;52.030;7.110;2022-11-18T14:28:24;12.27;;;9.25;;
34960;SDS011;30789;52.030;7.110;2022-11-18T14:30:55;12.00;;;8.93;;
34960;SDS011;30789;52.030;7.110;2022-11-18T14:33:25;13.60;;;8.27;;
34960;SDS011;30789;52.030;7.110;2022-11-18T14:35:53;10.50;;;7.70;;
34960;SDS011;30789;52.030;7.110;2022-11-18T14:38:23;15.55;;;8.73;;
34960;SDS011;30789;52.030;7.110;2022-11-18T14:40:55;14.25;;;8.77;;
34960;SDS011;30789;52.030;7.110;2022-11-18T14:43:24;11.77;;;8.25;;
34960;SDS011;30789;52.030;7.110;2022-11-18T14:45:51;13.15;;;8.30;;
34960;SDS011;30789;52.030;7.110;2022-11-18T14:48:19;10.38;;;7.47;;
34960;SDS011;30789;52.030;7.110;2022-11-18T14:50:47;13.55;;;8.60;;
34960;SDS011;30789;52.030;7.110;2022-11-18T14:53:13;12.50;;;8.85;;
34960;SDS011;30789;52.030;7.110;2022-11-18T14:55:41;15.48;;;9.05;;
34960;SDS011;30789;52.030;7.110;2022-11-18T14:58:10;15.55;;;8.85;;
34960;SDS011;30789;52.030;7.110;2022-11-18T15:00:38;14.13;;;9.35;;
34960;SDS011;30789;52.030;7.110;2022-11-18T15:03:05;17.80;;;10.70;;
34960;SDS011;30789;52.030;7.110;2022-11-18T15:05:31;17.73;;;11.38;;
34960;SDS011;30789;52.030;7.110;2022-11-18T15:07:58;19.02;;;11.35;;
34960;SDS011;30789;52.030;7.110;2022-11-18T15:10:24;18.25;;;10.68;;
34960;SDS011;30789;52.030;7.110;2022-11-18T15:12:52;21.25;;;11.95;;
34960;SDS011;30789;52.030;7.110;2022-11-18T15:15:19;18.67;;;11.68;;
34960;SDS011;30789;52.030;7.110;2022-11-18T15:17:45;18.13;;;11.85;;